Time;durP1;ratioP1;P1;durP2;ratioP2;P2;SDS_P1;SDS_P2;PMS_P1;PMS_P2;Temp;Humidity;BMP_temperature;BMP_pressure;BME280_temperature;BME280_humidity;BME280_pressure;Samples;Min_cycle;Max_cycle;Signal;HPM_P1;HPM_P2
2022/09/12 00:01:40;;;;;;;7.10;5.03;;;;;;;21.52;51.87;101663.63;5030284;28;20285;-65
2022/09/12 00:04:05;;;;;;;5.87;4.63;;;;;;;21.49;51.84;101653.25;5034062;28;20292;-66
2022/09/12 00:06:35;;;;;;;6.63;4.53;;;;;;;21.48;52.03;101638.31;5035055;28;20316;-66
2022/09/12 00:09:05;;;;;;;5.97;4.15;;;;;;;21.47;51.94;101641.91;5035017;28;20036;-66
2022/09/12 00:11:30;;;;;;;6.53;4.50;;;;;;;21.46;51.97;101642.88;5035306;28;21209;-66
2022/09/12 00:14:00;;;;;;;6.15;4.82;;;;;;;21.44;51.70;101634.22;5035273;28;20025;-67
2022/09/12 00:16:29;;;;;;;6.15;4.63;;;;;;;21.47;51.79;101645.41;5034617;28;20029;-66
2022/09/12 00:18:54;;;;;;;6.22;5.25;;;;;;;21.34;51.84;101618.22;5034704;28;20037;-66
2022/09/12 00:21:21;;;;;;;6.68;5.13;;;;;;;21.47;51.81;101640.09;5035917;28;20033;-66
2022/09/12 00:23:47;;;;;;;6.55;4.72;;;;;;;21.45;51.41;101631.44;5036762;28;20032;-65
2022/09/12 00:26:13;;;;;;;5.85;4.72;;;;;;;21.44;51.82;101634.22;5026327;28;20965;-66
2022/09/12 00:28:40;;;;;;;7.57;4.90;;;;;;;21.46;51.71;101637.56;5036424;28;20103;-65
2022/09/12 00:31:09;;;;;;;6.53;4.88;;;;;;;21.44;51.57;101637.69;5034617;28;20033;-65
2022/09/12 00:33:35;;;;;;;7.53;5.07;;;;;;;21.40;51.39;101630.97;5034597;28;20033;-66
2022/09/12 00:36:05;;;;;;;7.80;5.10;;;;;;;21.42;51.91;101630.84;5034369;28;20051;-66
2022/09/12 00:38:30;;;;;;;6.05;4.75;;;;;;;21.35;51.27;101623.41;5034664;28;20404;-65
2022/09/12 00:40:56;;;;;;;6.05;4.53;;;;;;;21.37;51.39;101623.28;5034514;28;20040;-65
2022/09/12 00:43:46;;;;;;;6.03;4.53;;;;;;;21.40;51.32;101624.84;5034011;28;20373;-66
2022/09/12 00:46:35;;;;;;;7.50;4.72;;;;;;;21.36;51.23;101619.78;5033695;28;20281;-65
2022/09/12 00:49:03;;;;;;;7.15;5.05;;;;;;;21.40;51.58;101624.84;5033322;28;20025;-66
2022/09/12 00:51:31;;;;;;;6.82;5.18;;;;;;;21.36;51.19;101613.63;5034333;28;20041;-66
2022/09/12 00:53:58;;;;;;;6.28;4.90;;;;;;;21.39;51.15;101613.38;5033800;28;20048;-67
2022/09/12 00:56:26;;;;;;;6.82;4.93;;;;;;;21.34;51.10;101612.94;5034183;28;20033;-68
2022/09/12 00:58:59;;;;;;;6.28;5.03;;;;;;;21.35;51.20;101618.09;5033538;28;20090;-67
2022/09/12 01:01:25;;;;;;;6.22;4.47;;;;;;;21.33;51.12;101612.09;5034247;28;20136;-66
2022/09/12 01:03:50;;;;;;;6.47;4.80;;;;;;;21.33;51.08;101603.28;5033667;28;20770;-65
2022/09/12 01:06:27;;;;;;;7.70;4.90;;;;;;;21.29;51.15;101594.75;5033795;28;20029;-65
2022/09/12 01:08:53;;;;;;;6.28;4.80;;;;;;;21.34;51.19;101602.31;5033408;28;20308;-66
2022/09/12 01:11:20;;;;;;;6.55;4.70;;;;;;;21.33;51.23;101592.69;5033855;28;20076;-66
2022/09/12 01:13:47;;;;;;;6.55;5.10;;;;;;;21.32;51.13;101598.97;5033749;28;20571;-67
2022/09/12 01:16:12;;;;;;;6.80;5.03;;;;;;;21.29;51.45;101591.28;5032620;28;20048;-66
2022/09/12 01:18:46;;;;;;;6.38;4.90;;;;;;;21.30;51.24;101595.59;5033751;28;20465;-66
2022/09/12 01:21:42;;;;;;;7.07;5.20;;;;;;;21.30;51.07;101596.44;5033274;28;20040;-67
2022/09/12 01:24:07;;;;;;;7.25;4.85;;;;;;;21.27;50.92;101585.22;5033599;28;20821;-65
2022/09/12 01:26:56;;;;;;;7.53;5.43;;;;;;;21.25;51.07;101580.06;5032991;28;20060;-66
2022/09/12 01:29:56;;;;;;;5.82;4.38;;;;;;;21.27;51.20;101572.84;5033265;28;20064;-66
2022/09/12 01:33:00;;;;;;;7.90;4.97;;;;;;;21.28;51.20;101584.28;5032450;28;20121;-66
2022/09/12 01:35:56;;;;;;;6.82;5.40;;;;;;;21.28;51.04;101586.91;5026120;28;20381;-65
2022/09/12 01:38:28;;;;;;;6.97;5.43;;;;;;;21.27;50.92;101583.44;5036431;28;20037;-66
2022/09/12 01:41:06;;;;;;;7.47;5.63;;;;;;;21.24;51.24;101572.22;5033017;28;20028;-65
2022/09/12 01:43:35;;;;;;;6.10;4.93;;;;;;;21.26;51.08;101583.56;5032812;28;20029;-66
2022/09/12 01:46:20;;;;;;;6.32;5.50;;;;;;;21.24;50.88;101580.19;5032961;28;20048;-66
2022/09/12 01:48:55;;;;;;;7.18;5.45;;;;;;;21.23;51.01;101568.75;5033740;28;20032;-66
2022/09/12 01:51:28;;;;;;;7.35;4.93;;;;;;;21.21;50.86;101576.00;5032969;28;20116;-65
2022/09/12 01:54:02;;;;;;;7.95;5.25;;;;;;;21.22;51.12;101574.19;5033094;28;20064;-66
2022/09/12 01:56:32;;;;;;;6.80;5.25;;;;;;;21.21;50.79;101568.03;5032703;28;20033;-66
2022/09/12 01:59:04;;;;;;;8.43;5.55;;;;;;;21.19;51.10;101554.91;5032342;28;20469;-65
2022/09/12 02:01:37;;;;;;;7.20;5.45;;;;;;;21.19;51.06;101548.78;5032347;28;20354;-66
2022/09/12 02:04:09;;;;;;;7.88;5.22;;;;;;;21.20;51.06;101559.25;5031957;28;20087;-66
2022/09/12 02:06:46;;;;;;;6.68;5.40;;;;;;;21.19;51.06;101554.09;5032694;28;20032;-66
2022/09/12 02:09:22;;;;;;;8.63;5.82;;;;;;;21.20;50.89;101545.16;5032065;28;20564;-65
2022/09/12 02:11:51;;;;;;;7.53;6.00;;;;;;;21.17;50.73;101537.44;5032333;28;20110;-66
2022/09/12 02:14:23;;;;;;;6.80;5.35;;;;;;;21.17;50.81;101540.97;5032302;28;20082;-65
2022/09/12 02:16:54;;;;;;;7.18;5.85;;;;;;;21.16;50.82;101541.91;5031844;28;20408;-65
2022/09/12 02:19:25;;;;;;;6.43;5.32;;;;;;;21.15;50.61;101532.28;5032680;28;20071;-65
2022/09/12 02:22:02;;;;;;;7.13;5.80;;;;;;;21.16;51.19;101549.88;5032343;28;20033;-65
2022/09/12 02:24:32;;;;;;;7.07;5.85;;;;;;;21.06;50.99;101532.19;5032206;28;20844;-65
2022/09/12 02:27:04;;;;;;;8.35;6.05;;;;;;;21.14;50.94;101535.91;5031080;28;20049;-65
2022/09/12 02:29:30;;;;;;;8.45;6.00;;;;;;;21.15;50.77;101545.53;5032246;28;20033;-65
2022/09/12 02:32:02;;;;;;;7.28;6.10;;;;;;;21.15;50.76;101545.53;5032201;28;20033;-65
2022/09/12 02:34:51;;;;;;;8.80;6.35;;;;;;;21.16;50.94;101549.03;5032027;28;20036;-65
2022/09/12 02:37:29;;;;;;;6.65;5.55;;;;;;;21.13;50.41;101544.81;5032278;28;20538;-66
2022/09/12 02:39:56;;;;;;;7.70;5.90;;;;;;;21.17;50.64;101548.03;5030573;28;20032;-65
2022/09/12 02:42:23;;;;;;;7.22;5.90;;;;;;;21.12;50.76;101540.47;5031827;28;20024;-66
2022/09/12 02:44:51;;;;;;;7.70;5.35;;;;;;;21.15;51.00;101547.34;5031636;28;20099;-66
2022/09/12 02:47:23;;;;;;;6.63;5.40;;;;;;;21.14;50.95;101541.22;5032046;28;20533;-66
2022/09/12 02:49:48;;;;;;;7.78;5.60;;;;;;;21.14;50.74;101541.22;5031949;28;20108;-65
2022/09/12 02:52:14;;;;;;;7.57;5.27;;;;;;;21.10;50.59;101533.63;5031506;28;20794;-66
2022/09/12 02:54:39;;;;;;;7.40;5.65;;;;;;;21.13;50.90;101536.88;5031704;28;20262;-66
2022/09/12 02:57:15;;;;;;;7.55;5.70;;;;;;;21.10;50.59;101525.69;5031417;28;20098;-66
2022/09/12 02:59:40;;;;;;;6.90;5.57;;;;;;;21.10;50.64;101525.69;5031805;28;20032;-66
2022/09/12 03:02:31;;;;;;;6.55;5.10;;;;;;;21.11;50.55;101527.34;5031191;28;20377;-67
2022/09/12 03:05:15;;;;;;;7.03;5.00;;;;;;;21.07;50.54;101521.47;5031478;28;20426;-66
2022/09/12 03:08:18;;;;;;;6.65;5.35;;;;;;;21.12;50.35;101526.41;5031106;28;20099;-66
2022/09/12 03:11:18;;;;;;;6.72;5.50;;;;;;;21.12;50.58;101515.78;5031542;28;20072;-66
2022/09/12 03:13:56;;;;;;;6.57;5.40;;;;;;;21.08;50.40;101519.66;5037409;28;20043;-66
2022/09/12 03:16:39;;;;;;;7.28;5.30;;;;;;;21.12;50.23;101526.41;5031242;28;20453;-66
2022/09/12 03:19:13;;;;;;;7.88;5.57;;;;;;;21.07;50.39;101515.34;5031186;28;20979;-65
2022/09/12 03:22:01;;;;;;;6.60;5.57;;;;;;;21.09;50.46;101516.03;5031550;28;20025;-66
2022/09/12 03:24:34;;;;;;;7.15;5.20;;;;;;;21.07;50.58;101510.88;5031417;28;20486;-66
2022/09/12 03:27:12;;;;;;;7.93;5.30;;;;;;;21.07;50.27;101515.34;5031763;28;20048;-66
2022/09/12 03:29:39;;;;;;;7.15;5.40;;;;;;;21.03;50.26;101512.13;5031921;28;20021;-66
2022/09/12 03:32:06;;;;;;;7.30;5.75;;;;;;;20.97;50.14;101505.50;5030866;28;20025;-67
2022/09/12 03:34:31;;;;;;;8.27;5.68;;;;;;;21.07;50.50;101510.03;5030859;28;20136;-66
2022/09/12 03:36:57;;;;;;;7.32;5.68;;;;;;;21.04;50.63;101515.59;5031291;28;21122;-66
2022/09/12 03:39:26;;;;;;;7.32;5.70;;;;;;;21.01;50.42;101509.59;5031082;28;20029;-66
2022/09/12 03:41:52;;;;;;;6.78;5.15;;;;;;;21.02;50.61;101511.25;5022024;28;20029;-66
2022/09/12 03:44:18;;;;;;;6.85;5.32;;;;;;;21.04;50.36;101516.44;5030874;28;20029;-66
2022/09/12 03:46:45;;;;;;;7.35;5.43;;;;;;;21.01;50.36;101509.59;5031022;28;20108;-66
2022/09/12 03:49:11;;;;;;;8.18;5.85;;;;;;;21.04;50.09;101516.44;5031122;28;20071;-66
2022/09/12 03:51:37;;;;;;;8.35;5.32;;;;;;;20.99;50.38;101500.91;5030778;28;20021;-66
2022/09/12 03:54:02;;;;;;;6.85;5.32;;;;;;;21.03;50.60;101506.81;5031021;28;20152;-66
2022/09/12 03:56:28;;;;;;;7.55;5.68;;;;;;;21.01;50.10;101506.09;5031030;28;20890;-66
2022/09/12 03:58:53;;;;;;;6.60;5.13;;;;;;;21.01;50.52;101500.78;5031225;28;20036;-66
2022/09/12 04:01:19;;;;;;;7.35;5.18;;;;;;;21.00;50.63;101492.00;5030777;28;20029;-66
2022/09/12 04:03:47;;;;;;;7.00;5.38;;;;;;;20.99;50.64;101489.47;5030723;28;20056;-66
2022/09/12 04:06:15;;;;;;;7.18;5.95;;;;;;;21.02;50.44;101497.19;5030716;28;20449;-66
2022/09/12 04:08:42;;;;;;;7.03;5.55;;;;;;;21.02;50.14;101495.34;5031104;28;20045;-65
2022/09/12 04:11:12;;;;;;;8.70;6.03;;;;;;;21.00;50.07;101484.06;5030485;28;20033;-66
2022/09/12 04:13:40;;;;;;;10.25;5.88;;;;;;;20.98;50.17;101487.78;5030743;28;20350;-66
2022/09/12 04:16:06;;;;;;;8.30;5.80;;;;;;;20.98;50.35;101488.66;5030769;28;20034;-65
2022/09/12 04:18:33;;;;;;;6.85;5.35;;;;;;;20.97;50.73;101486.97;5029630;28;20037;-65
2022/09/12 04:21:02;;;;;;;7.30;5.90;;;;;;;21.02;50.36;101487.41;5030544;28;20365;-64
2022/09/12 04:23:27;;;;;;;8.45;5.82;;;;;;;20.97;50.26;101481.66;5030301;28;20040;-65
2022/09/12 04:25:57;;;;;;;7.23;5.73;;;;;;;21.00;50.27;101486.69;5030272;28;20045;-66
2022/09/12 04:28:23;;;;;;;6.68;5.40;;;;;;;20.99;50.19;101476.22;5030900;28;20266;-65
2022/09/12 04:30:49;;;;;;;8.63;6.40;;;;;;;20.97;50.51;101472.88;5030468;28;20457;-65
2022/09/12 04:33:14;;;;;;;7.05;5.82;;;;;;;20.96;50.39;101474.66;5030592;28;20040;-65
2022/09/12 04:35:40;;;;;;;7.25;5.80;;;;;;;20.94;50.30;101475.78;5032804;28;20082;-64
2022/09/12 04:38:06;;;;;;;7.15;5.90;;;;;;;20.98;50.23;101475.41;5030259;28;20132;-65
2022/09/12 04:40:32;;;;;;;9.10;5.82;;;;;;;20.97;50.58;101478.19;5030300;28;20511;-66
2022/09/12 04:42:57;;;;;;;7.72;6.13;;;;;;;20.97;50.64;101470.22;5030219;28;20041;-67
2022/09/12 04:45:22;;;;;;;8.05;6.00;;;;;;;21.01;50.69;101471.63;5030398;28;20041;-66
2022/09/12 04:47:48;;;;;;;8.00;5.65;;;;;;;20.99;50.76;101463.81;5030296;28;20057;-66
2022/09/12 04:50:13;;;;;;;7.07;5.47;;;;;;;20.99;50.71;101470.94;5031521;28;20031;-66
2022/09/12 04:52:39;;;;;;;7.93;5.97;;;;;;;21.00;50.31;101467.31;5033924;28;20258;-66
2022/09/12 04:55:05;;;;;;;7.03;5.50;;;;;;;21.00;50.44;101473.44;5034094;28;20377;-66
2022/09/12 04:57:30;;;;;;;7.88;6.05;;;;;;;20.97;50.42;101473.72;5033709;28;20033;-66
2022/09/12 04:59:56;;;;;;;7.40;6.03;;;;;;;20.99;50.35;101476.22;5034463;28;20037;-65
2022/09/12 05:02:21;;;;;;;7.23;5.80;;;;;;;20.94;50.60;101468.66;5036605;28;20025;-66
2022/09/12 05:04:46;;;;;;;8.35;5.68;;;;;;;20.95;50.69;101472.16;5033728;28;20258;-66
2022/09/12 05:07:11;;;;;;;8.43;5.97;;;;;;;20.98;50.51;101478.06;5032867;28;20029;-66
2022/09/12 05:09:37;;;;;;;8.30;6.30;;;;;;;20.93;50.51;101474.09;5034164;28;20262;-66
2022/09/12 05:12:03;;;;;;;8.40;6.80;;;;;;;20.97;50.53;101472.88;5033841;28;20259;-66
2022/09/12 05:14:28;;;;;;;9.38;7.95;;;;;;;20.94;50.40;101473.97;5033704;28;20270;-66
2022/09/12 05:16:58;;;;;;;9.07;7.30;;;;;;;20.93;50.38;101474.91;5033133;28;20036;-66
2022/09/12 05:19:23;;;;;;;9.07;6.93;;;;;;;20.92;50.76;101478.56;5033612;28;20883;-66
2022/09/12 05:21:48;;;;;;;9.15;7.03;;;;;;;20.97;50.63;101483.47;5033744;28;20029;-66
2022/09/12 05:24:14;;;;;;;9.33;6.80;;;;;;;20.92;50.68;101470.59;5033275;28;20178;-65
2022/09/12 05:26:39;;;;;;;9.10;6.72;;;;;;;20.94;50.97;101476.63;5033486;28;20353;-65
2022/09/12 05:29:05;;;;;;;8.23;6.70;;;;;;;20.96;50.60;101485.25;5033697;28;20399;-66
2022/09/12 05:31:31;;;;;;;8.38;6.57;;;;;;;20.96;50.81;101484.44;5033230;28;20111;-65
2022/09/12 05:33:56;;;;;;;8.75;6.10;;;;;;;20.84;50.45;101465.13;5032607;28;20045;-65
2022/09/12 05:36:23;;;;;;;7.97;6.30;;;;;;;20.95;50.73;101474.78;5033282;28;20348;-66
2022/09/12 05:38:48;;;;;;;7.63;6.05;;;;;;;20.95;50.62;101477.44;5032815;28;20263;-66
2022/09/12 05:41:17;;;;;;;8.02;6.47;;;;;;;20.96;50.55;101476.47;5032954;28;20361;-65
2022/09/12 05:43:43;;;;;;;8.18;6.13;;;;;;;20.97;51.01;101475.53;5032809;28;20040;-65
2022/09/12 05:46:17;;;;;;;9.65;6.22;;;;;;;20.94;50.69;101470.47;5032653;28;20025;-65
2022/09/12 05:48:45;;;;;;;9.68;6.80;;;;;;;20.96;50.67;101476.47;5032821;28;20029;-65
2022/09/12 05:51:13;;;;;;;9.30;7.38;;;;;;;20.92;50.95;101477.69;5032999;28;20033;-65
2022/09/12 05:53:39;;;;;;;9.40;7.85;;;;;;;20.96;51.02;101481.78;5033092;28;20029;-66
2022/09/12 05:56:11;;;;;;;9.98;7.70;;;;;;;20.94;51.09;101487.22;5032858;28;20396;-66
2022/09/12 05:58:39;;;;;;;9.68;7.30;;;;;;;20.92;51.11;101489.16;5033866;28;20376;-66
2022/09/12 06:01:11;;;;;;;8.60;6.95;;;;;;;20.94;51.09;101487.22;5033877;28;20060;-65
2022/09/12 06:03:40;;;;;;;8.52;6.47;;;;;;;20.92;50.94;101490.94;5033826;28;20033;-64
2022/09/12 06:06:06;;;;;;;10.27;7.10;;;;;;;20.91;51.02;101486.63;5033732;28;20037;-65
2022/09/12 06:08:33;;;;;;;7.78;5.90;;;;;;;20.97;51.06;101500.19;5037698;28;20408;-67
2022/09/12 06:11:03;;;;;;;8.25;6.30;;;;;;;20.96;51.35;101500.34;5032943;28;20076;-65
2022/09/12 06:13:33;;;;;;;7.95;5.78;;;;;;;20.93;51.51;101496.13;5032720;28;20029;-64
2022/09/12 06:16:11;;;;;;;7.45;5.13;;;;;;;20.94;51.49;101500.47;5032556;28;20025;-66
2022/09/12 06:18:37;;;;;;;6.60;5.15;;;;;;;20.96;51.22;101495.03;5031678;28;20464;-65
2022/09/12 06:21:11;;;;;;;7.45;5.30;;;;;;;20.97;51.60;101491.44;5032532;28;20047;-67
2022/09/12 06:23:37;;;;;;;6.90;5.20;;;;;;;21.00;51.87;101496.47;5032120;28;20381;-66
2022/09/12 06:26:04;;;;;;;7.00;5.10;;;;;;;20.99;51.81;101487.66;5031661;28;20088;-65
2022/09/12 06:28:30;;;;;;;7.90;5.55;;;;;;;21.05;52.01;101501.38;5032032;28;20083;-66
2022/09/12 06:31:24;;;;;;;7.13;4.93;;;;;;;21.05;52.11;101493.44;5032412;28;20071;-67
2022/09/12 06:33:51;;;;;;;6.05;4.55;;;;;;;21.03;51.98;101482.97;5031683;28;20047;-67
2022/09/12 06:36:20;;;;;;;6.20;4.60;;;;;;;21.04;52.39;101486.44;5031896;28;20388;-69
2022/09/12 06:38:46;;;;;;;6.72;5.32;;;;;;;21.07;51.90;101488.84;5031806;28;20098;-67
2022/09/12 06:41:12;;;;;;;8.45;5.22;;;;;;;21.10;52.58;101493.88;5031793;28;20468;-65
2022/09/12 06:43:39;;;;;;;6.40;4.50;;;;;;;21.10;52.47;101492.06;5032162;28;20044;-66
2022/09/12 06:46:04;;;;;;;9.45;5.07;;;;;;;21.11;52.37;101491.09;5031673;28;20040;-65
2022/09/12 06:48:30;;;;;;;8.02;4.60;;;;;;;21.10;52.62;101488.59;5031893;28;20029;-65
2022/09/12 06:51:01;;;;;;;8.25;5.50;;;;;;;21.14;52.25;101490.00;5032218;28;20036;-67
2022/09/12 06:53:28;;;;;;;8.20;4.95;;;;;;;21.06;52.69;101473.91;5031711;28;20033;-67
2022/09/12 06:55:59;;;;;;;8.45;4.80;;;;;;;21.14;52.72;101482.91;5031767;28;20034;-66
2022/09/12 06:58:25;;;;;;;7.38;4.85;;;;;;;21.19;52.87;101482.53;5031549;28;20389;-66
2022/09/12 07:00:51;;;;;;;7.15;4.60;;;;;;;21.20;52.53;101490.34;5031558;28;20029;-66
2022/09/12 07:03:17;;;;;;;6.32;4.63;;;;;;;21.21;52.74;101483.22;5031175;28;20094;-66
2022/09/12 07:05:42;;;;;;;7.63;4.78;;;;;;;21.19;53.12;101478.03;5031871;28;20047;-67
2022/09/12 07:08:07;;;;;;;7.07;4.50;;;;;;;21.20;52.82;101478.88;5031609;28;20033;-66
2022/09/12 07:10:33;;;;;;;5.53;4.07;;;;;;;21.17;52.85;101474.69;5031719;28;20530;-67
2022/09/12 07:13:00;;;;;;;6.60;4.40;;;;;;;21.20;52.82;101482.38;5030900;28;20625;-66
2022/09/12 07:15:26;;;;;;;6.43;4.50;;;;;;;21.24;52.77;101485.63;5031334;28;20286;-65
2022/09/12 07:17:51;;;;;;;7.93;4.10;;;;;;;21.27;52.89;101497.75;5031855;28;20120;-66
2022/09/12 07:20:16;;;;;;;5.90;3.95;;;;;;;21.25;53.27;101481.16;5031372;28;20041;-66
2022/09/12 07:22:42;;;;;;;6.17;4.20;;;;;;;21.26;52.92;101481.00;5031407;28;20040;-66
2022/09/12 07:25:07;;;;;;;6.90;4.60;;;;;;;21.30;53.27;101476.28;5031214;28;20286;-66
2022/09/12 07:27:33;;;;;;;6.97;4.88;;;;;;;21.30;52.89;101473.63;5031308;28;20090;-66
2022/09/12 07:29:59;;;;;;;6.32;4.60;;;;;;;21.29;53.23;101472.81;5031218;28;20033;-66
2022/09/12 07:32:25;;;;;;;5.88;4.13;;;;;;;21.30;52.78;101470.97;5031178;28;20029;-65
2022/09/12 07:34:51;;;;;;;6.15;4.10;;;;;;;21.32;53.18;101475.19;5030953;28;20037;-66
2022/09/12 07:37:16;;;;;;;6.25;4.40;;;;;;;21.32;52.74;101475.19;5031382;28;20033;-65
2022/09/12 07:39:41;;;;;;;5.90;4.35;;;;;;;21.34;53.19;101470.59;5030814;28;20032;-65
2022/09/12 07:42:07;;;;;;;5.93;4.03;;;;;;;21.35;52.65;101471.47;5031529;28;20036;-66
2022/09/12 07:44:32;;;;;;;6.95;4.20;;;;;;;21.41;52.66;101485.97;5031070;28;20034;-66
2022/09/12 07:46:57;;;;;;;6.25;4.30;;;;;;;21.39;52.70;101478.16;5031264;28;20033;-65
2022/09/12 07:49:23;;;;;;;5.97;4.53;;;;;;;21.40;52.81;101477.19;5030880;28;20080;-67
2022/09/12 07:51:48;;;;;;;6.82;4.15;;;;;;;21.40;52.62;101476.38;5029678;28;20263;-65
2022/09/12 07:54:13;;;;;;;6.80;3.92;;;;;;;21.41;52.81;101481.50;5031093;28;20408;-65
2022/09/12 07:56:39;;;;;;;6.88;4.47;;;;;;;21.47;52.84;101483.63;5030868;28;20029;-67
2022/09/12 07:59:05;;;;;;;6.35;4.10;;;;;;;21.44;52.67;101491.84;5030704;28;20063;-65
2022/09/12 08:01:30;;;;;;;9.23;4.18;;;;;;;21.45;52.95;101485.59;5030909;28;20029;-67
2022/09/12 08:03:57;;;;;;;6.38;4.28;;;;;;;21.47;52.82;101480.97;5031205;28;20187;-67
2022/09/12 08:06:24;;;;;;;5.32;3.72;;;;;;;21.49;52.95;101478.25;5030971;28;20037;-68
2022/09/12 08:08:52;;;;;;;6.50;4.13;;;;;;;21.52;52.59;101480.63;5031099;28;20048;-68
2022/09/12 08:11:19;;;;;;;6.15;4.07;;;;;;;21.52;53.12;101478.84;5030769;28;20033;-66
2022/09/12 08:13:44;;;;;;;5.85;4.10;;;;;;;21.47;52.91;101478.34;5030930;28;20033;-66
2022/09/12 08:16:16;;;;;;;5.90;4.00;;;;;;;21.55;53.05;101496.28;5031187;28;20488;-66
2022/09/12 08:18:42;;;;;;;6.68;3.90;;;;;;;21.53;53.06;101488.44;5030744;28;20030;-67
2022/09/12 08:21:13;;;;;;;6.03;4.25;;;;;;;21.52;53.10;101488.59;5030327;28;20035;-65
2022/09/12 08:23:39;;;;;;;5.40;3.60;;;;;;;21.50;52.76;101483.41;5030198;28;20029;-66
2022/09/12 08:26:05;;;;;;;6.90;4.40;;;;;;;21.51;52.96;101486.94;5033657;28;20053;-66
2022/09/12 08:28:32;;;;;;;5.82;4.05;;;;;;;21.52;52.92;101494.75;5034446;28;20041;-65
2022/09/12 08:31:02;;;;;;;6.75;4.43;;;;;;;21.53;53.48;101495.56;5034033;28;20049;-70
2022/09/12 08:33:32;;;;;;;5.53;4.00;;;;;;;21.56;53.03;101505.94;5034959;28;20080;-71
2022/09/12 08:36:06;;;;;;;8.45;3.92;;;;;;;21.55;53.36;101502.44;5033947;28;20036;-67
2022/09/12 08:38:33;;;;;;;5.35;3.63;;;;;;;21.53;53.34;101492.94;5034824;28;20040;-70
2022/09/12 08:41:26;;;;;;;6.95;3.92;;;;;;;21.56;53.38;101498.81;5034469;28;20469;-67
2022/09/12 08:44:28;;;;;;;5.30;3.63;;;;;;;21.61;53.40;101498.41;5034042;28;20033;-66
2022/09/12 08:47:09;;;;;;;5.60;3.92;;;;;;;21.67;53.29;101510.31;5034187;28;20040;-67
2022/09/12 08:49:52;;;;;;;6.32;3.58;;;;;;;21.69;52.94;101505.72;5034266;28;20084;-66
2022/09/12 08:52:24;;;;;;;6.03;3.90;;;;;;;21.68;53.41;101493.41;5034415;28;20036;-66
2022/09/12 08:54:50;;;;;;;5.95;3.70;;;;;;;21.73;53.57;101501.84;5034179;28;20042;-67
2022/09/12 08:57:16;;;;;;;6.95;4.15;;;;;;;21.76;53.12;101495.41;5033928;28;20040;-67
2022/09/12 08:59:43;;;;;;;6.63;3.60;;;;;;;21.76;52.96;101487.44;5033986;28;20037;-66
2022/09/12 09:02:38;;;;;;;5.40;3.50;;;;;;;21.80;53.26;101494.19;5033935;28;20113;-67
2022/09/12 09:05:03;;;;;;;;;;;;;;;21.80;53.31;101481.75;5034144;28;20108;-68
2022/09/12 09:08:10;;;;;;;5.67;3.60;;;;;;;21.83;52.99;101485.94;5033378;28;19924;-68
2022/09/12 09:11:29;;;;;;;7.45;3.60;;;;;;;21.82;53.44;101492.22;5033568;28;20607;-68
2022/09/12 09:17:11;;;;;;;7.03;3.50;;;;;;;21.81;53.53;101483.44;5033558;28;20179;-66
2022/09/12 09:19:41;;;;;;;5.25;3.25;;;;;;;21.79;53.54;101473.91;5033677;28;20066;-66
2022/09/12 09:22:13;;;;;;;5.00;3.03;;;;;;;21.83;53.07;101478.00;5032819;28;20036;-67
2022/09/12 09:24:44;;;;;;;6.68;3.13;;;;;;;21.79;53.24;101472.09;5034055;28;20059;-67
2022/09/12 09:27:19;;;;;;;4.60;2.92;;;;;;;21.82;53.48;101477.13;5033057;28;20048;-67
2022/09/12 09:29:49;;;;;;;5.10;3.00;;;;;;;21.81;53.65;101474.63;5033767;28;20037;-65
2022/09/12 09:32:25;;;;;;;4.78;3.40;;;;;;;21.84;53.99;101477.00;5033320;28;20564;-67
2022/09/12 09:34:51;;;;;;;4.85;3.13;;;;;;;21.81;53.34;101464.84;5033069;28;20070;-66
2022/09/12 09:37:34;;;;;;;5.30;3.20;;;;;;;21.81;53.48;101462.22;5032710;28;20036;-66
2022/09/12 09:40:24;;;;;;;4.45;2.97;;;;;;;21.82;53.29;101465.69;5033171;28;20025;-66
2022/09/12 09:43:01;;;;;;;4.68;3.13;;;;;;;21.86;53.36;101465.28;5032664;28;20107;-67
2022/09/12 09:45:28;;;;;;;5.55;2.92;;;;;;;21.84;53.62;101456.63;5032653;28;20033;-66
2022/09/12 09:47:57;;;;;;;5.07;3.22;;;;;;;21.87;53.51;101464.31;5032797;28;20453;-66
2022/09/12 09:50:23;;;;;;;4.30;2.95;;;;;;;21.83;53.88;101449.63;5033029;28;20030;-67
2022/09/12 09:52:51;;;;;;;4.20;2.70;;;;;;;21.85;53.40;101447.69;5032836;28;20030;-66
2022/09/12 09:55:25;;;;;;;5.13;3.17;;;;;;;21.89;53.43;101448.28;5032633;28;20033;-67
2022/09/12 09:57:52;;;;;;;4.65;2.72;;;;;;;21.86;53.47;101436.09;5032688;28;20029;-67
2022/09/12 10:00:23;;;;;;;4.53;2.97;;;;;;;21.91;53.77;101441.84;5033209;28;20122;-68
2022/09/12 10:03:01;;;;;;;5.13;2.80;;;;;;;21.93;53.43;101433.75;5032655;28;20033;-65
2022/09/12 10:05:27;;;;;;;4.45;2.78;;;;;;;21.92;53.79;101440.00;5032962;28;20062;-66
2022/09/12 10:07:53;;;;;;;4.75;2.85;;;;;;;21.90;53.36;101434.88;5032349;28;20566;-64
2022/09/12 10:10:21;;;;;;;4.53;2.67;;;;;;;21.89;53.71;101427.03;5032585;28;20468;-65
2022/09/12 10:12:47;;;;;;;3.85;2.70;;;;;;;21.94;53.44;101438.09;5032808;28;20112;-66
2022/09/12 10:15:27;;;;;;;4.68;2.83;;;;;;;21.95;53.70;101423.00;5032373;28;20533;-67
2022/09/12 10:17:57;;;;;;;9.18;3.22;;;;;;;21.94;54.30;101416.84;5029960;28;20065;-78
2022/09/12 10:20:33;;;;;;;9.02;3.20;;;;;;;21.92;53.99;101418.78;5031253;28;20041;-79
2022/09/12 10:22:59;;;;;;;5.65;2.72;;;;;;;21.90;54.01;101404.81;5032008;28;20022;-75
2022/09/12 10:25:26;;;;;;;4.82;2.85;;;;;;;21.93;54.52;101416.00;5031429;28;20116;-77
2022/09/12 10:27:57;;;;;;;5.07;2.97;;;;;;;21.93;54.08;101410.69;5030995;28;20029;-79
2022/09/12 10:30:26;;;;;;;10.57;2.88;;;;;;;21.95;53.91;101397.28;5031187;28;20041;-77
2022/09/12 10:32:55;;;;;;;4.40;2.88;;;;;;;22.06;54.21;101402.50;5030982;28;20037;-78
2022/09/12 10:35:24;;;;;;;4.25;2.65;;;;;;;22.13;53.63;101396.63;5032088;28;20036;-77
2022/09/12 10:38:03;;;;;;;6.10;2.60;;;;;;;22.10;53.59;101389.78;5031714;28;20053;-78
2022/09/12 10:40:42;;;;;;;4.28;2.45;;;;;;;22.22;53.74;101398.44;5031087;28;20033;-77
2022/09/12 10:43:46;;;;;;;4.53;2.60;;;;;;;22.23;53.40;101381.56;5031116;28;20040;-76
2022/09/12 10:46:15;;;;;;;4.78;2.67;;;;;;;22.31;52.97;101384.38;5018247;28;20389;-77
2022/09/12 10:48:41;;;;;;;4.88;2.83;;;;;;;22.35;52.96;101382.28;5017621;28;20037;-75
2022/09/12 10:51:25;;;;;;;4.70;2.55;;;;;;;22.38;52.70;101380.19;5024586;28;20072;-75
2022/09/12 10:53:53;;;;;;;4.10;2.30;;;;;;;22.34;53.26;101368.16;5030996;28;20037;-72
2022/09/12 10:56:22;;;;;;;5.00;2.80;;;;;;;22.37;52.96;101367.06;5030094;28;20091;-70
2022/09/12 10:59:03;;;;;;;6.07;2.92;;;;;;;22.42;52.93;101376.28;5030994;28;20068;-70
2022/09/12 11:01:31;;;;;;;4.22;2.65;;;;;;;22.41;52.98;101360.47;5031711;28;20036;-70
2022/09/12 11:04:24;;;;;;;6.45;2.90;;;;;;;22.42;52.10;101362.16;5045512;28;20118;-74
2022/09/12 11:07:20;;;;;;;4.47;3.00;;;;;;;22.39;52.07;101350.00;5031280;28;20033;-71
2022/09/12 11:10:09;;;;;;;4.80;3.00;;;;;;;22.37;52.22;101343.16;5031835;28;20465;-72
2022/09/12 11:12:52;;;;;;;7.38;2.97;;;;;;;22.37;51.24;101349.31;5031048;28;20052;-74
2022/09/12 11:15:21;;;;;;;5.03;2.67;;;;;;;22.39;51.94;101355.31;5030536;28;20495;-74
2022/09/12 11:18:22;;;;;;;5.45;2.97;;;;;;;22.40;51.78;101351.69;5030681;28;20551;-71
2022/09/12 11:20:53;;;;;;;5.45;3.03;;;;;;;22.39;51.65;101350.00;5031733;28;20033;-74
2022/09/12 11:23:56;;;;;;;5.10;3.10;;;;;;;22.39;51.89;101351.81;5030340;28;20086;-73
2022/09/12 11:26:32;;;;;;;5.30;2.58;;;;;;;22.42;51.78;101346.22;5031138;28;20044;-71
2022/09/12 11:29:54;;;;;;;4.90;2.92;;;;;;;22.40;51.52;101338.41;5031157;28;20060;-71
2022/09/12 11:32:46;;;;;;;4.40;2.50;;;;;;;22.32;51.74;101321.47;5018850;28;20079;-71
2022/09/12 11:35:14;;;;;;;4.10;2.75;;;;;;;22.44;51.49;101337.13;5018874;28;20025;-72
2022/09/12 11:37:58;;;;;;;5.88;2.78;;;;;;;22.45;51.58;101341.47;5028477;28;20079;-72
2022/09/12 11:40:47;;;;;;;5.03;2.60;;;;;;;22.46;51.56;101340.50;5031776;28;20033;-68
2022/09/12 11:43:41;;;;;;;4.30;2.75;;;;;;;22.50;51.82;101346.34;5031402;28;20041;-69
2022/09/12 11:46:11;;;;;;;4.63;2.35;;;;;;;22.52;51.62;101348.88;5030451;28;20103;-70
2022/09/12 11:48:45;;;;;;;3.70;2.28;;;;;;;22.52;51.58;101343.56;5030705;28;20041;-70
2022/09/12 11:51:18;;;;;;;;;;;;;;;22.51;52.08;101340.06;5031358;28;20135;-67